Who's Online

We have 9 guests online

GK Weather

An error occured during parsing XML data. Please try again.

Aviation WX

[source: ADDS]
METAR
KIAD 260552Z 31003KT 10SM OVC120 06/03 A3016 RMK AO2 SLP212 VIRGA OHD-ALQDS T00610033 10072 20050 50008 =
TAF
KIAD 260537Z 2606/2712 36005KT P6SM -RA BKN090 OVC150 FM260900 02008KT 3SM -RASN BKN060 OVC150 FM261500 01009KT 1SM -SN OVC003 FM261800 35011KT 1SM -SN SCT003 OVC008 FM262200 33011KT P6SM OVC008 FM270100 32007KT P6SM SCT008 BKN035 FM270500 VRB03KT P6SM OVC045 =
SR / SS: 01:43 / 11:34 UTC (Washington-Dulles 2014-11-25)

JoomlaWatch Agent

Home Links
We are regularly out on the Web. When we find a great site we list it.